Surface observations / UK / EGBB

Quebec | Canada | USA | France | UK | Europe | Elsewhere

Display: Info & Location for EGBB | Help decoding METAR

EGBB BIRMINGHAM AIRPORT -- UK
Raw surface observations for station EGBB
EGBB 042020Z 26008KT 240V300 CAVOK 20/09 Q1019=
EGBB 041950Z 27007KT 240V310 CAVOK 20/10 Q1019=
EGBB 041920Z 26007KT 210V310 CAVOK 21/09 Q1019=
EGBB 041850Z 26007KT CAVOK 22/09 Q1019=
EGBB 041820Z 25007KT 210V290 CAVOK 22/09 Q1019=
EGBB 041750Z 26009KT 220V300 CAVOK 22/09 Q1019=
EGBB 041720Z 26008KT 230V290 CAVOK 22/09 Q1019=
EGBB 041650Z 23010KT 200V260 CAVOK 23/10 Q1018=
EGBB 041620Z 23010KT 200V280 9999 FEW048 23/11 Q1018=
EGBB 041550Z 24009G21KT 190V280 9999 FEW048 24/12 Q1018=
EGBB 041520Z 23008KT 190V280 9999 FEW045 23/12 Q1018=
EGBB 041450Z 23012KT 180V270 9999 SCT045 24/12 Q1018=
EGBB 041420Z 23008KT 180V280 9999 SCT044 24/13 Q1018=
EGBB 041350Z 23011KT 210V270 9999 SCT042 24/14 Q1017=
EGBB 041320Z 23011KT 190V270 9999 SCT040 24/13 Q1017=
EGBB 041250Z 26011KT 230V290 9999 SCT039 24/14 Q1017=
EGBB 041220Z 24010KT 9999 SCT044 24/13 Q1017=
EGBB 041150Z 22010KT 190V270 9999 SCT044 23/14 Q1016=
EGBB 041120Z 22009KT 160V280 9999 SCT032 23/14 Q1016=
EGBB 041050Z 23009KT 180V280 9999 SCT032 SCT038 23/15 Q1016=
EGBB 041020Z 21010KT 190V250 9999 SCT028 SCT035 22/16 Q1016=
EGBB 040950Z 21010KT 190V260 9999 SCT030 SCT035 22/16 Q1016=
EGBB 040920Z 21010KT 170V250 9999 SCT028 SCT034 22/16 Q1016=
EGBB 040850Z 23009KT 170V260 9999 SCT016 SCT024 22/16 Q1015=
EGBB 040820Z 21007KT 170V250 9999 SCT016 SCT019 21/18 Q1015=
EGBB 040750Z 21007KT 160V240 4800 HZ SCT006 BKN010 19/18 Q1015=
EGBB 040720Z 19006KT 170V230 4000 BR BKN008 BKN012 19/18 Q1015=
EGBB 040650Z 18006KT 2600 BR OVC005 18/18 Q1015=
EGBB 040620Z 16007KT 2500 BR OVC004 18/17 Q1015=
EGBB 040550Z 14007KT 2700 BR OVC004 17/17 Q1014=
EGBB 040520Z 16006KT 3200 BR OVC004 17/17 Q1015=
EGBB 040450Z 14005KT 4000 BR OVC004 17/16 Q1014=
EGBB 040420Z 15005KT 5000 BR BKN005 OVC008 17/16 Q1015=
EGBB 040350Z 12004KT 070V160 6000 BKN006 OVC032 17/16 Q1014=
EGBB 040320Z 09005KT 9999 BKN008 OVC013 17/16 Q1014=
EGBB 040250Z 11008KT 9999 FEW006 BKN011 17/16 Q1015=
EGBB 040220Z 12005KT 070V180 9999 SCT035 BKN041 16/15 Q1015=
EGBB 040150Z 09009KT 9999 -RA FEW022 16/15 Q1014 RERA=
EGBB 040120Z 10007KT 7000 RA VCTS FEW007 SCT010 BKN017CB 15/15 Q1016 RETS RERA=
EGBB 040050Z 12005KT 070V180 9999 TSRA SCT042CB 17/14 Q1016 RETS=
EGBB 040020Z 08008KT CAVOK 17/13 Q1016=
EGBB 032350Z 06005KT CAVOK 17/13 Q1017=
EGBB 032320Z 06005KT 030V100 CAVOK 17/13 Q1017=
EGBB 032250Z 08007KT 050V150 CAVOK 17/13 Q1018=
EGBB 032220Z 09008KT CAVOK 18/13 Q1018=
EGBB 032150Z 08011KT 060V120 CAVOK 18/13 Q1019=
EGBB 032120Z 08010KT CAVOK 19/13 Q1019=
EGBB 032050Z 08009KT CAVOK 19/13 Q1019=
EGBB 032020Z 08011KT CAVOK 19/13 Q1019=